Hallock, MN

5:56 PM CST on February 06, 2016 (GMT -0600)
Hallock Municipal

Weather History for KHCO - June, 2014

Change the Weather History Date:

Wednesday, June 4, 2014

  Actual Average Record
Temperature  
Mean Temperature 65 °F -  
Max Temperature 80 °F 76 °F 93 °F (1968)
Min Temperature 50 °F 50 °F 33 °F (1947)
Growing Degree Days 15 (Base 50)    
Moisture  
Dew Point 48 °F    
Average Humidity 54    
Maximum Humidity 94    
Minimum Humidity 21    
Precipitation  
Precipitation 0.00 in - - ()
Sea Level Pressure  
Sea Level Pressure 29.83 in    
Wind  
Wind Speed 4 mph (SSE)    
Max Wind Speed 14 mph    
Max Gust Speed 21 mph    
Visibility 10 miles    
Events Rain    
Averages and records for this station are not official NWS values.
T = Trace of Precipitation, MM = Missing Value Source: NWS Daily Summary

Daily Weather History Graph

Daily Weather History Graph

Search for Another Location

Airport or City:

Trip Planner

Search our weather history database for the weather conditions in past years. The results will help you decide how hot, cold, wet, or windy it might be!

Date:

Astronomy

Jun. 04, 2014 Rise Set
Actual Time 5:27 AM CDT 9:25 PM CDT
Civil Twilight 4:46 AM CDT 10:06 PM CDT
Nautical Twilight 3:48 AM CDT 11:04 PM CDT
Astronomical Twilight 2:14 AM CDT 12:40 AM CDT
Moon 12:11 PM CDT (6/4) 1:02 AM CDT (6/4)
Length of Visible Light 17h 20m
Length of Day
15h 57m
Waxing Crescent, 39% of the Moon is Illuminated
Jun 4
Waxing Crescent
Jun 5
First Quarter
Jun 12
Full
Jun 19
Last Quarter
Jun 27
New

Hourly Weather History & Observations

Time (CDT) Temp. Dew Point Humidity Pressure Visibility Wind Dir Wind Speed Gust Speed Precip Events Conditions
12:13 AM 62.6 °F 46.4 °F 55% 29.83 in 10.0 mi Calm Calm - N/A   Overcast
12:54 AM 59.0 °F 46.4 °F 63% 29.84 in 10.0 mi Calm Calm - N/A   Overcast
1:13 AM 57.2 °F 46.4 °F 67% 29.84 in 10.0 mi Calm Calm - N/A   Overcast
1:33 AM 57.2 °F 48.2 °F 72% 29.85 in 10.0 mi Calm Calm - N/A   Overcast
1:54 AM 57.2 °F 48.2 °F 72% 29.85 in 10.0 mi Calm Calm - N/A   Overcast
2:13 AM 55.4 °F 48.2 °F 77% 29.86 in 10.0 mi Calm Calm - N/A   Overcast
2:33 AM 55.4 °F 48.2 °F 77% 29.86 in 10.0 mi Calm Calm - N/A   Overcast
2:53 AM 55.4 °F 50.0 °F 82% 29.86 in 10.0 mi Calm Calm - N/A   Overcast
3:13 AM 53.6 °F 51.8 °F 94% 29.86 in 10.0 mi East 4.6 mph - N/A   Overcast
3:33 AM 53.6 °F 48.2 °F 82% 29.87 in 10.0 mi SE 3.5 mph - N/A   Overcast
3:53 AM 51.8 °F 48.2 °F 88% 29.87 in 10.0 mi SE 5.8 mph - N/A   Overcast
4:13 AM 51.8 °F 48.2 °F 88% 29.86 in 10.0 mi ESE 3.5 mph - N/A   Overcast
4:33 AM 53.6 °F 51.8 °F 94% 29.87 in 10.0 mi Calm Calm - N/A   Overcast
4:53 AM 50.0 °F 46.4 °F 87% 29.86 in 10.0 mi Calm Calm - N/A   Overcast
5:13 AM 51.8 °F 48.2 °F 88% 29.87 in 10.0 mi Calm Calm - N/A   Overcast
5:33 AM 50.0 °F 48.2 °F 94% 29.87 in 10.0 mi Calm Calm - N/A   Overcast
5:54 AM 50.0 °F 48.2 °F 94% 29.87 in 7.0 mi Calm Calm - N/A   Overcast
6:13 AM 50.0 °F 48.2 °F 94% 29.87 in 7.0 mi Calm Calm - N/A   Overcast
6:33 AM 51.8 °F 50.0 °F 94% 29.87 in 10.0 mi Calm Calm - N/A   Overcast
6:53 AM 55.4 °F 51.8 °F 88% 29.87 in 10.0 mi Calm Calm - N/A   Overcast
7:13 AM 59.0 °F 53.6 °F 82% 29.87 in 10.0 mi SE 4.6 mph - N/A   Overcast
7:33 AM 60.8 °F 53.6 °F 77% 29.88 in 10.0 mi SE 3.5 mph - N/A   Overcast
7:53 AM 62.6 °F 55.4 °F 77% 29.88 in 10.0 mi SSE 3.5 mph - N/A   Overcast
8:13 AM 64.4 °F 55.4 °F 73% 29.88 in 10.0 mi SSE 4.6 mph - N/A   Overcast
8:34 AM 66.2 °F 55.4 °F 68% 29.88 in 10.0 mi South 4.6 mph - N/A   Overcast
8:53 AM 66.2 °F 55.4 °F 68% 29.88 in 10.0 mi South 4.6 mph - N/A   Overcast
9:13 AM 69.8 °F 55.4 °F 60% 29.88 in 10.0 mi South 3.5 mph - N/A   Overcast
9:34 AM 71.6 °F 53.6 °F 53% 29.88 in 10.0 mi SSE 5.8 mph - N/A   Overcast
9:53 AM 73.4 °F 53.6 °F 50% 29.88 in 10.0 mi South 5.8 mph - N/A   Overcast
10:13 AM 73.4 °F 48.2 °F 41% 29.88 in 10.0 mi SSE 6.9 mph - N/A   Overcast
10:34 AM 75.2 °F 44.6 °F 34% 29.88 in 10.0 mi SE 5.8 mph - N/A   Overcast
10:53 AM 77.0 °F 42.8 °F 29% 29.88 in 10.0 mi South 3.5 mph - N/A   Overcast
11:13 AM 77.0 °F 39.2 °F 26% 29.88 in 10.0 mi SSE 6.9 mph - N/A   Overcast
11:34 AM 78.8 °F 41.0 °F 26% 29.88 in 10.0 mi SE 6.9 mph - N/A   Overcast
11:53 AM 78.8 °F 41.0 °F 26% 29.88 in 10.0 mi SE 6.9 mph - N/A   Mostly Cloudy
12:13 PM 78.8 °F 42.8 °F 28% 29.87 in 10.0 mi South 8.1 mph - N/A   Overcast
12:34 PM 77.0 °F 42.8 °F 29% 29.87 in 10.0 mi SW 4.6 mph - N/A   Overcast
12:53 PM 78.8 °F 44.6 °F 30% 29.86 in 10.0 mi SW 3.5 mph - N/A   Mostly Cloudy
1:13 PM 78.8 °F 46.4 °F 32% 29.86 in 10.0 mi SSW 4.6 mph - N/A   Mostly Cloudy
1:33 PM 78.8 °F 46.4 °F 32% 29.86 in 10.0 mi SSE 6.9 mph - N/A   Mostly Cloudy
1:53 PM 78.8 °F 44.6 °F 30% 29.85 in 10.0 mi SSE 3.5 mph - N/A   Mostly Cloudy
2:13 PM 78.8 °F 46.4 °F 32% 29.84 in 10.0 mi SW 5.8 mph - N/A   Mostly Cloudy
2:33 PM 78.8 °F 42.8 °F 28% 29.84 in 10.0 mi SSE 9.2 mph - N/A   Overcast
2:53 PM 78.8 °F 42.8 °F 28% 29.83 in 10.0 mi SSE 8.1 mph - N/A   Mostly Cloudy
3:13 PM 78.8 °F 42.8 °F 28% 29.83 in 10.0 mi SSW 8.1 mph 17.3 mph N/A   Mostly Cloudy
3:33 PM 80.6 °F 42.8 °F 26% 29.82 in 10.0 mi South 4.6 mph 19.6 mph N/A   Mostly Cloudy
3:53 PM 80.6 °F 39.2 °F 23% 29.82 in 10.0 mi South 9.2 mph - N/A   Overcast
4:13 PM 78.8 °F 41.0 °F 26% 29.81 in 10.0 mi SW 10.4 mph 18.4 mph N/A   Mostly Cloudy
4:33 PM 80.6 °F 41.0 °F 24% 29.81 in 10.0 mi South 11.5 mph 19.6 mph N/A   Unknown
4:53 PM 80.6 °F 37.4 °F 21% 29.80 in 10.0 mi South 12.7 mph 18.4 mph N/A   Overcast
5:13 PM 80.6 °F 42.8 °F 26% 29.81 in 10.0 mi SSW 12.7 mph 20.7 mph N/A   Overcast
5:33 PM 78.8 °F 42.8 °F 28% 29.80 in 10.0 mi SW 12.7 mph 16.1 mph N/A   Overcast
5:53 PM 78.8 °F 42.8 °F 28% 29.80 in 10.0 mi SW 12.7 mph 16.1 mph N/A   Overcast
6:13 PM 78.8 °F 41.0 °F 26% 29.79 in 10.0 mi South 11.5 mph - N/A   Overcast
6:33 PM 78.8 °F 44.6 °F 30% 29.80 in 10.0 mi WSW 11.5 mph - N/A   Mostly Cloudy
6:53 PM 73.4 °F 55.4 °F 53% 29.79 in 10.0 mi NNW 8.1 mph - N/A Rain Light Rain
7:13 PM 73.4 °F 55.4 °F 53% 29.78 in 10.0 mi North 5.8 mph - N/A   Overcast
7:33 PM 73.4 °F 53.6 °F 50% 29.78 in 10.0 mi ENE 3.5 mph - N/A   Overcast
7:53 PM 73.4 °F 53.6 °F 50% 29.77 in 10.0 mi NE 6.9 mph - N/A   Overcast
8:13 PM 73.4 °F 53.6 °F 50% 29.78 in 10.0 mi ENE 8.1 mph - N/A   Overcast
8:33 PM 71.6 °F 53.6 °F 53% 29.78 in 10.0 mi ENE 3.5 mph - N/A   Overcast
8:53 PM 71.6 °F 53.6 °F 53% 29.77 in 10.0 mi East 6.9 mph - N/A   Overcast
9:13 PM 69.8 °F 53.6 °F 56% 29.76 in 10.0 mi East 6.9 mph - N/A   Overcast
9:33 PM 69.8 °F 53.6 °F 56% 29.76 in 10.0 mi East 6.9 mph - N/A   Overcast
10:13 PM 69.8 °F 53.6 °F 56% 29.76 in 10.0 mi SE 10.4 mph - N/A   Overcast
10:33 PM 71.6 °F 53.6 °F 53% 29.75 in 10.0 mi SE 12.7 mph - N/A   Overcast
10:53 PM 71.6 °F 51.8 °F 50% 29.75 in 10.0 mi SSE 12.7 mph - N/A   Overcast
11:13 PM 69.8 °F 53.6 °F 56% 29.74 in 10.0 mi SSE 13.8 mph - N/A   Overcast
11:33 PM 69.8 °F 53.6 °F 56% 29.75 in 10.0 mi SSE 13.8 mph - N/A Rain Light Rain
11:53 PM 69.8 °F 53.6 °F 56% 29.75 in 10.0 mi SSE 13.8 mph - N/A Rain Light Rain